• Join FlightAware (Why Join?)
  • Login
  • US Flag 
07:32PM EDT


 

Airport Tracker/Info


-or-


 

Live Flight TrackerFlight Track Log ✈ VH-WPL ✈ 17-May-2013 ✈ YEML / EMD - YBAF

Flight Track Log - Related Links

Times and Time Zones

All times are in EDT time to prevent confusion due to time zone crossing. See the VH-WPL flight status page for this flight to view local times or setup timezone preferences in your user account.

Time Position Orientation Groundspeed Altitude Reporting Facility
EDT Latitude Longitude Course Direction KTS MPH feet Rate Location/Type
05:39AM -23.6487 148.3042 117° Southeast 9,000  Level Aus ATC (Calculated)
05:39AM -23.6487 148.3042 117° Southeast 9,000 -180 Level Aus ATC (Calculated)
05:40AM -23.6487 148.3042 117° Southeast 9,000 -180 Level Aus ATC (Calculated)
05:42AM -23.6929 148.3547 123° Southeast  Level Estimated
05:43AM -23.7127 148.3882 123° Southeast  Level FlightAware Approximate
05:43AM -23.7288 148.4384 314° West 9,000  Level Aus ATC (Calculated)
05:45AM -23.7637 148.4969 123° Southeast  Level FlightAware Approximate
05:46AM -23.7836 148.5304 123° Southeast  Level FlightAware Approximate
05:47AM -23.8035 148.5639 123° Southeast  Level FlightAware Approximate
05:48AM -23.8234 148.5974 123° Southeast  Level FlightAware Approximate
05:48AM -23.8087 148.5726 306° West 9,000  Level Aus ATC (Calculated)
05:49AM -23.6929 148.3971 123° Southeast 89 102 7,300 -600 Descending Aus ATC (RADAR)
05:50AM -23.7120 148.4234 128° Southeast 76 87 7,900 300 Climbing Aus ATC (RADAR)
05:51AM -23.7214 148.4379 125° Southeast 90 104 8,000 360 Climbing Aus ATC (RADAR)
05:52AM -23.7352 148.4522 137° Southeast 92 106 8,400 420 Climbing Aus ATC (RADAR)
05:52AM -23.7458 148.4646 133° Southeast 96 110 8,600 300 Climbing Aus ATC (RADAR)
05:53AM -23.7584 148.4830 127° Southeast 102 117 8,800 300 Climbing Aus ATC (RADAR)
05:53AM -23.7655 148.4934 127° Southeast 103 119 9,000 300 Climbing Aus ATC (RADAR)
05:54AM -23.7747 148.5090 123° Southeast 106 122 9,100 60 Climbing Aus ATC (RADAR)
05:55AM -23.7926 148.5405 122° Southeast 125 144 9,100  Level Aus ATC (RADAR)
05:55AM -23.8009 148.5543 123° Southeast 129 148 9,100  Level Aus ATC (RADAR)
05:56AM -23.8124 148.5733 123° Southeast 129 148 9,100  Level Aus ATC (RADAR)
05:57AM -23.8274 148.5987 123° Southeast 132 152 9,100  Level Aus ATC (RADAR)
05:57AM -23.8383 148.6190 120° Southeast 131 151 9,100  Level Aus ATC (RADAR)
05:58AM -23.8547 148.6521 118° Southeast 136 157 9,100  Level Aus ATC (RADAR)
05:58AM -23.8620 148.6674 118° Southeast 137 158 9,100  Level Aus ATC (RADAR)
05:59AM -23.8718 148.6886 117° Southeast 133 153 9,100  Level Aus ATC (RADAR)
06:00AM -23.8893 148.7207 121° Southeast 133 153 9,100  Level Aus ATC (RADAR)
06:00AM -23.8974 148.7349 122° Southeast 132 152 9,100  Level Aus ATC (RADAR)
06:01AM -23.9112 148.7544 128° Southeast 135 155 9,100  Level Aus ATC (RADAR)
06:02AM -23.9270 148.7789 125° Southeast 133 153 9,100  Level Aus ATC (RADAR)
06:02AM -23.9403 148.7978 128° Southeast 134 154 9,100  Level Aus ATC (RADAR)
06:03AM -23.9532 148.8170 126° Southeast 134 154 9,100  Level Aus ATC (RADAR)
06:03AM -23.9659 148.8362 126° Southeast 134 154 9,100  Level Aus ATC (RADAR)
06:04AM -23.9774 148.8558 123° Southeast 131 151 9,100  Level Aus ATC (RADAR)
06:05AM -23.9986 148.8907 123° Southeast 138 159 9,100  Level Aus ATC (RADAR)
06:05AM -24.0057 148.9056 118° Southeast 136 157 9,100  Level Aus ATC (RADAR)
06:06AM -24.0161 148.9264 119° Southeast 134 154 9,100  Level Aus ATC (RADAR)
06:07AM -24.0298 148.9526 120° Southeast 132 152 9,100  Level Aus ATC (RADAR)
06:07AM -24.0414 148.9725 123° Southeast 132 152 9,100  Level Aus ATC (RADAR)
06:08AM -24.0567 148.9975 124° Southeast 130 150 9,100  Level Aus ATC (RADAR)
06:09AM -24.0658 149.0108 127° Southeast 128 147 9,100  Level Aus ATC (RADAR)
06:09AM -24.0788 149.0302 126° Southeast 133 153 9,100  Level Aus ATC (RADAR)
06:10AM -24.1002 149.0638 125° Southeast 134 154 9,100  Level Aus ATC (RADAR)
06:11AM -24.1080 149.0783 121° Southeast 134 154 9,100  Level Aus ATC (RADAR)
06:11AM -24.1205 149.1017 120° Southeast 134 154 9,100  Level Aus ATC (RADAR)
06:12AM -24.1351 149.1276 122° Southeast 134 154 9,100  Level Aus ATC (RADAR)
06:13AM -24.1458 149.1475 120° Southeast 132 152 9,100  Level Aus ATC (RADAR)
06:13AM -24.1609 149.1732 123° Southeast 132 152 9,100  Level Aus ATC (RADAR)
06:14AM -24.1691 149.1873 123° Southeast 131 151 9,100  Level Aus ATC (RADAR)
06:14AM -24.1811 149.2072 123° Southeast 133 153 9,100  Level Aus ATC (RADAR)
06:15AM -24.2019 149.2402 125° Southeast 131 151 9,100  Level Aus ATC (RADAR)
06:16AM -24.2103 149.2542 124° Southeast 132 152 9,100  Level Aus ATC (RADAR)
06:16AM -24.2223 149.2735 124° Southeast 131 151 9,100  Level Aus ATC (RADAR)
06:17AM -24.2365 149.2987 122° Southeast 131 151 9,100  Level Aus ATC (RADAR)
06:18AM -24.2484 149.3188 123° Southeast 134 154 9,100  Level Aus ATC (RADAR)
06:18AM -24.2596 149.3393 121° Southeast 134 154 9,100  Level Aus ATC (RADAR)
06:19AM -24.2709 149.3595 122° Southeast 133 153 9,100  Level Aus ATC (RADAR)
06:19AM -24.2826 149.3796 123° Southeast 134 154 9,100  Level Aus ATC (RADAR)
06:20AM -24.3003 149.4109 122° Southeast 131 151 9,100  Level Aus ATC (RADAR)
06:21AM -24.3096 149.4256 125° Southeast 136 157 9,100  Level Aus ATC (RADAR)
06:21AM -24.3205 149.4451 122° Southeast 131 151 9,100  Level Aus ATC (RADAR)
06:22AM -24.3359 149.4707 123° Southeast 133 153 9,100  Level Aus ATC (RADAR)
06:23AM -24.3479 149.4909 123° Southeast 134 154 9,100  Level Aus ATC (RADAR)
06:23AM -24.3600 149.5107 124° Southeast 133 153 9,100 120 Level Aus ATC (RADAR)
06:24AM -24.3715 149.5302 123° Southeast 131 151 9,300 480 Climbing Aus ATC (RADAR)
06:24AM -24.3807 149.5470 121° Southeast 115 132 9,700 420 Climbing Aus ATC (RADAR)
06:25AM -24.3913 149.5705 116° Southeast 104 120 9,900 240 Climbing Aus ATC (RADAR)
06:26AM -24.3957 149.5802 116° Southeast 106 122 10,000 120 Climbing Aus ATC (RADAR)
06:26AM -24.4021 149.5924 120° Southeast 108 124 10,000 180 Level Aus ATC (RADAR)
06:27AM -24.4114 149.6079 124° Southeast 104 120 10,200 180 Climbing Aus ATC (RADAR)
06:27AM -24.4250 149.6288 125° Southeast 110 127 10,300 60 Climbing Aus ATC (RADAR)
06:28AM -24.4351 149.6455 124° Southeast 111 128 10,300 120 Level Aus ATC (RADAR)
06:28AM -24.4452 149.6619 124° Southeast 111 128 10,500 360 Climbing Aus ATC (RADAR)
06:29AM -24.4539 149.6766 123° Southeast 114 131 10,700 240 Climbing Aus ATC (RADAR)
06:30AM -24.4633 149.6938 121° Southeast 113 130 10,800 240 Climbing Aus ATC (RADAR)
06:31AM -24.4806 149.7243 122° Southeast 117 135 11,100 180 Climbing Aus ATC (RADAR)
06:31AM -24.4884 149.7374 123° Southeast 121 139 11,100 60 Level Aus ATC (RADAR)
06:32AM -24.4993 149.7566 122° Southeast 124 143 11,200 60 Climbing Aus ATC (RADAR)
06:32AM -24.5122 149.7796 122° Southeast 131 151 11,200 -120 Level Aus ATC (RADAR)
06:33AM -24.5244 149.8004 123° Southeast 137 158 11,100 -120 Descending Aus ATC (RADAR)
06:33AM -24.5370 149.8195 126° Southeast 133 153 11,100  Level Aus ATC (RADAR)
06:34AM -24.5499 149.8388 126° Southeast 133 153 11,100  Level Aus ATC (RADAR)
06:35AM -24.5648 149.8606 127° Southeast 134 154 11,100  Level Aus ATC (RADAR)
06:36AM -24.5874 149.8956 125° Southeast 139 160 11,100  Level Aus ATC (RADAR)
06:36AM -24.5962 149.9102 124° Southeast 138 159 11,100  Level Aus ATC (RADAR)
06:37AM -24.6081 149.9316 122° Southeast 140 161 11,100  Level Aus ATC (RADAR)
06:37AM -24.6229 149.9594 120° Southeast 141 162 11,100  Level Aus ATC (RADAR)
06:38AM -24.6334 149.9811 118° Southeast 138 159 11,100  Level Aus ATC (RADAR)
06:39AM -24.6442 150.0027 119° Southeast 139 160 11,100  Level Aus ATC (RADAR)
06:39AM -24.6552 150.0242 119° Southeast 137 158 11,100  Level Aus ATC (RADAR)
06:40AM -24.6664 150.0448 121° Southeast 134 154 11,100  Level Aus ATC (RADAR)
06:41AM -24.6843 150.0741 124° Southeast 137 158 11,100  Level Aus ATC (RADAR)
06:41AM -24.6940 150.0880 128° Southeast 137 158 11,100  Level Aus ATC (RADAR)
06:42AM -24.7075 150.1077 127° Southeast 137 158 11,100  Level Aus ATC (RADAR)
06:42AM -24.7219 150.1309 124° Southeast 137 158 11,100  Level Aus ATC (RADAR)
06:43AM -24.7339 150.1518 122° Southeast 138 159 11,100  Level Aus ATC (RADAR)
06:43AM -24.7458 150.1735 121° Southeast 140 161 11,100  Level Aus ATC (RADAR)
06:44AM -24.7550 150.1918 119° Southeast 137 158 11,100  Level Aus ATC (RADAR)
06:44AM -24.7658 150.2132 119° Southeast 137 158 11,100  Level Aus ATC (RADAR)
06:45AM -24.7777 150.2343 122° Southeast 138 159 11,100  Level Aus ATC (RADAR)
06:46AM -24.7936 150.2613 123° Southeast 140 161 11,100  Level Aus ATC (RADAR)
06:46AM -24.8027 150.2760 124° Southeast 140 161 11,100  Level Aus ATC (RADAR)
06:47AM -24.8156 150.2961 125° Southeast 138 159 11,100  Level Aus ATC (RADAR)
06:47AM -24.8323 150.3217 126° Southeast 137 158 11,100  Level Aus ATC (RADAR)
06:48AM -24.8432 150.3389 125° Southeast 137 158 11,100  Level Aus ATC (RADAR)
06:49AM -24.8556 150.3600 123° Southeast 139 160 11,100  Level Aus ATC (RADAR)
06:49AM -24.8679 150.3814 122° Southeast 141 162 11,100  Level Aus ATC (RADAR)
06:50AM -24.8796 150.4026 121° Southeast 138 159 11,100  Level Aus ATC (RADAR)
06:50AM -24.8928 150.4272 121° Southeast 139 160 11,100  Level Aus ATC (RADAR)
06:51AM -24.9019 150.4453 119° Southeast 135 155 11,100  Level Aus ATC (RADAR)
06:51AM -24.9132 150.4669 120° Southeast 138 159 11,100  Level Aus ATC (RADAR)
06:52AM -24.9242 150.4881 120° Southeast 136 157 11,100  Level Aus ATC (RADAR)
06:53AM -24.9339 150.5068 120° Southeast 138 159 11,100  Level Aus ATC (RADAR)
06:53AM -24.9455 150.5282 121° Southeast 139 160 11,100  Level Aus ATC (RADAR)
06:54AM -24.9580 150.5494 123° Southeast 141 162 11,100  Level Aus ATC (RADAR)
06:54AM -24.9706 150.5700 124° Southeast 139 160 11,100  Level Aus ATC (RADAR)
06:55AM -24.9830 150.5912 123° Southeast 139 160 11,100  Level Aus ATC (RADAR)
06:56AM -25.0000 150.6204 123° Southeast 135 155 11,100  Level Aus ATC (RADAR)
06:56AM -25.0083 150.6351 122° Southeast 134 154 11,100  Level Aus ATC (RADAR)
06:57AM -25.0202 150.6560 122° Southeast 137 158 11,100  Level Aus ATC (RADAR)
06:58AM -25.0387 150.6856 125° Southeast 140 161 11,100  Level Aus ATC (RADAR)
06:58AM -25.0518 150.7068 124° Southeast 141 162 11,100  Level Aus ATC (RADAR)
06:59AM -25.0671 150.7312 125° Southeast 143 165 11,100  Level Aus ATC (RADAR)
06:59AM -25.0797 150.7526 123° Southeast 141 162 11,100  Level Aus ATC (RADAR)
07:00AM -25.0883 150.7680 122° Southeast 140 161 11,100  Level Aus ATC (RADAR)
07:01AM -25.1040 150.7961 122° Southeast 141 162 11,100  Level Aus ATC (RADAR)
07:01AM -25.1157 150.8190 120° Southeast 144 166 11,100  Level Aus ATC (RADAR)
07:02AM -25.1270 150.8410 120° Southeast 141 162 11,100  Level Aus ATC (RADAR)
07:02AM -25.1368 150.8593 120° Southeast 139 160 11,100  Level Aus ATC (RADAR)
07:03AM -25.1488 150.8813 121° Southeast 141 162 11,100  Level Aus ATC (RADAR)
07:03AM -25.1608 150.9029 122° Southeast 141 162 11,100  Level Aus ATC (RADAR)
07:04AM -25.1710 150.9203 123° Southeast 137 158 11,100  Level Aus ATC (RADAR)
07:04AM -25.1828 150.9411 122° Southeast 136 157 11,100  Level Aus ATC (RADAR)
07:05AM -25.1950 150.9617 123° Southeast 137 158 11,100  Level Aus ATC (RADAR)
07:06AM -25.2107 150.9881 123° Southeast 136 157 11,100  Level Aus ATC (RADAR)
07:06AM -25.2194 151.0024 124° Southeast 134 154 11,100  Level Aus ATC (RADAR)
07:07AM -25.2309 151.0228 122° Southeast 132 152 11,100  Level Aus ATC (RADAR)
07:07AM -25.2443 151.0476 121° Southeast 138 159 11,100  Level Aus ATC (RADAR)
07:08AM -25.2561 151.0690 121° Southeast 139 160 11,100  Level Aus ATC (RADAR)
07:09AM -25.2678 151.0906 121° Southeast 139 160 11,100  Level Aus ATC (RADAR)
07:09AM -25.2783 151.1088 122° Southeast 140 161 11,100  Level Aus ATC (RADAR)
07:10AM -25.2903 151.1308 121° Southeast 141 162 11,100  Level Aus ATC (RADAR)
07:10AM -25.3022 151.1528 121° Southeast 141 162 11,100  Level Aus ATC (RADAR)
07:11AM -25.3171 151.1811 120° Southeast 141 162 11,100  Level Aus ATC (RADAR)
07:11AM -25.3256 151.1964 122° Southeast 140 161 11,100  Level Aus ATC (RADAR)
07:12AM -25.3363 151.2146 123° Southeast 142 163 11,100  Level Aus ATC (RADAR)
07:13AM -25.3521 151.2409 124° Southeast 136 157 11,100  Level Aus ATC (RADAR)
07:13AM -25.3627 151.2580 124° Southeast 135 155 11,100  Level Aus ATC (RADAR)
07:14AM -25.3746 151.2792 122° Southeast 137 158 11,100  Level Aus ATC (RADAR)
07:14AM -25.3867 151.2995 123° Southeast 135 155 11,100  Level Aus ATC (RADAR)
07:15AM -25.3965 151.3170 122° Southeast 132 152 11,100  Level Aus ATC (RADAR)
07:15AM -25.4080 151.3375 122° Southeast 132 152 11,100  Level Aus ATC (RADAR)
07:16AM -25.4219 151.3640 120° Southeast 132 152 11,100  Level Aus ATC (RADAR)
07:17AM -25.4294 151.3786 120° Southeast 131 151 11,100  Level Aus ATC (RADAR)
07:17AM -25.4409 151.3986 122° Southeast 131 151 11,100  Level Aus ATC (RADAR)
07:18AM -25.4545 151.4216 123° Southeast 133 153 11,100  Level Aus ATC (RADAR)
07:18AM -25.4631 151.4366 122° Southeast 136 157 11,100  Level Aus ATC (RADAR)
07:19AM -25.4744 151.4560 123° Southeast 128 147 11,100  Level Aus ATC (RADAR)
07:20AM -25.4870 151.4787 122° Southeast 129 148 11,100  Level Aus ATC (RADAR)
07:20AM -25.4953 151.4933 122° Southeast 132 152 11,100  Level Aus ATC (RADAR)
07:21AM -25.5063 151.5136 121° Southeast 130 150 11,100  Level Aus ATC (RADAR)
07:21AM -25.5189 151.5364 121° Southeast 128 147 11,100  Level Aus ATC (RADAR)
07:22AM -25.5261 151.5505 119° Southeast 125 144 11,100  Level Aus ATC (RADAR)
07:22AM -25.5367 151.5702 121° Southeast 127 146 11,100  Level Aus ATC (RADAR)
07:23AM -25.5491 151.5923 122° Southeast 127 146 11,100  Level Aus ATC (RADAR)
07:23AM -25.5601 151.6121 122° Southeast 129 148 11,100  Level Aus ATC (RADAR)
07:24AM -25.5712 151.6269 130° Southeast 127 146 11,100  Level Aus ATC (RADAR)
07:25AM -25.5833 151.6466 124° Southeast 131 151 11,100  Level Aus ATC (RADAR)
07:25AM -25.5958 151.6681 123° Southeast 141 162 11,100  Level Aus ATC (RADAR)
07:26AM -25.6144 151.6794 151° Southeast 132 152 11,100  Level Aus ATC (RADAR)
07:27AM -25.6395 151.6956 150° Southeast 125 144 11,100  Level Aus ATC (RADAR)
07:27AM -25.6494 151.7019 150° Southeast 123 142 11,100  Level Aus ATC (RADAR)
07:27AM -25.6669 151.7141 148° Southeast 127 146 11,100  Level Aus ATC (RADAR)
07:28AM -25.6866 151.7291 146° Southeast 128 147 11,100  Level Aus ATC (RADAR)
07:29AM -25.7035 151.7415 146° Southeast 125 144 11,100  Level Aus ATC (RADAR)
07:29AM -25.7202 151.7530 148° Southeast 121 139 11,100  Level Aus ATC (RADAR)
07:30AM -25.7354 151.7678 139° Southeast 123 142 11,100  Level Aus ATC (RADAR)
07:30AM -25.7527 151.7798 148° Southeast 126 145 11,100  Level Aus ATC (RADAR)
07:31AM -25.7752 151.7940 150° Southeast 123 142 11,100  Level Aus ATC (RADAR)
07:32AM -25.7897 151.8022 153° Southeast 117 135 11,100  Level Aus ATC (RADAR)
07:32AM -25.8068 151.8146 147° Southeast 124 143 11,100  Level Aus ATC (RADAR)
07:33AM -25.8244 151.8266 148° Southeast 127 146 11,100  Level Aus ATC (RADAR)
07:33AM -25.8396 151.8361 151° Southeast 126 145 11,100  Level Aus ATC (RADAR)
07:34AM -25.8576 151.8493 147° Southeast 131 151 11,100  Level Aus ATC (RADAR)
07:34AM -25.8731 151.8586 152° Southeast 128 147 11,100  Level Aus ATC (RADAR)
07:35AM -25.8903 151.8699 149° Southeast 124 143 11,100  Level Aus ATC (RADAR)
07:36AM -25.9077 151.8804 151° Southeast 121 139 11,100  Level Aus ATC (RADAR)
07:36AM -25.9281 151.8971 144° Southeast 122 140 11,100  Level Aus ATC (RADAR)
07:37AM -25.9407 151.9054 149° Southeast 126 145 11,100  Level Aus ATC (RADAR)
07:37AM -25.9582 151.9160 151° Southeast 124 143 11,100  Level Aus ATC (RADAR)
07:38AM -25.9780 151.9299 148° Southeast 125 144 11,100  Level Aus ATC (RADAR)
07:38AM -25.9907 151.9383 149° Southeast 127 146 11,100  Level Aus ATC (RADAR)
07:39AM -26.0084 151.9499 149° Southeast 127 146 11,100  Level Aus ATC (RADAR)
07:40AM -26.0281 151.9636 148° Southeast 129 148 11,100  Level Aus ATC (RADAR)
07:40AM -26.0402 151.9716 149° Southeast 124 143 11,100  Level Aus ATC (RADAR)
07:41AM -26.0568 151.9843 146° Southeast 124 143 11,100  Level Aus ATC (RADAR)
07:41AM -26.0811 152.0013 148° Southeast 123 142 11,100  Level Aus ATC (RADAR)
07:42AM -26.0935 152.0095 149° Southeast 123 142 11,100  Level Aus ATC (RADAR)
07:42AM -26.1105 152.0210 149° Southeast 122 140 11,100  Level Aus ATC (RADAR)
07:43AM -26.1299 152.0318 153° Southeast 117 135 11,100  Level Aus ATC (RADAR)
07:43AM -26.1397 152.0372 154° Southeast 117 135 11,100  Level Aus ATC (RADAR)
07:44AM -26.1562 152.0472 151° Southeast 115 132 11,100  Level Aus ATC (RADAR)
07:45AM -26.1774 152.0603 151° Southeast 117 135 11,100  Level Aus ATC (RADAR)
07:45AM -26.1869 152.0668 149° Southeast 118 136 11,100  Level Aus ATC (RADAR)
07:46AM -26.2035 152.0782 148° Southeast 119 137 11,100  Level Aus ATC (RADAR)
07:47AM -26.2270 152.0958 146° Southeast 122 140 11,100  Level Aus ATC (RADAR)
07:47AM -26.2380 152.1058 141° Southeast 121 139 11,100  Level Aus ATC (RADAR)
07:47AM -26.2518 152.1164 145° Southeast 121 139 11,100  Level Aus ATC (RADAR)
07:48AM -26.2701 152.1310 144° Southeast 121 139 11,100  Level Aus ATC (RADAR)
07:49AM -26.2817 152.1400 145° Southeast 122 140 11,100  Level Aus ATC (RADAR)
07:49AM -26.2979 152.1519 147° Southeast 120 138 11,100  Level Aus ATC (RADAR)
07:50AM -26.3163 152.1645 148° Southeast 116 133 11,100  Level Aus ATC (RADAR)
07:50AM -26.3279 152.1718 151° Southeast 115 132 11,100  Level Aus ATC (RADAR)
07:51AM -26.3445 152.1812 153° Southeast 115 132 11,100  Level Aus ATC (RADAR)
07:51AM -26.3644 152.1908 157° South 117 135 11,100  Level Aus ATC (RADAR)
07:52AM -26.3767 152.1975 154° Southeast 118 136 11,100  Level Aus ATC (RADAR)
07:52AM -26.3933 152.2077 151° Southeast 117 135 11,100  Level Aus ATC (RADAR)
07:53AM -26.4124 152.2205 149° Southeast 120 138 11,100  Level Aus ATC (RADAR)
07:53AM -26.4220 152.2272 148° Southeast 120 138 11,100  Level Aus ATC (RADAR)
07:54AM -26.4368 152.2412 140° Southeast 120 138 11,100  Level Aus ATC (RADAR)
07:55AM -26.4553 152.2558 145° Southeast 121 139 11,100  Level Aus ATC (RADAR)
07:55AM -26.4668 152.2650 144° Southeast 121 139 11,100  Level Aus ATC (RADAR)
07:56AM -26.4828 152.2772 146° Southeast 119 137 11,100  Level Aus ATC (RADAR)
07:57AM -26.5061 152.2936 148° Southeast 117 135 11,100  Level Aus ATC (RADAR)
07:57AM -26.5182 152.3013 150° Southeast 119 137 11,100  Level Aus ATC (RADAR)
07:58AM -26.5356 152.3111 153° Southeast 119 137 11,100  Level Aus ATC (RADAR)
07:58AM -26.5551 152.3228 152° Southeast 120 138 11,100  Level Aus ATC (RADAR)
07:59AM -26.5724 152.3329 153° Southeast 119 137 11,100  Level Aus ATC (RADAR)
07:59AM -26.5891 152.3439 150° Southeast 119 137 11,100  Level Aus ATC (RADAR)
08:00AM -26.6090 152.3558 152° Southeast 121 139 11,100  Level Aus ATC (RADAR)
08:01AM -26.6288 152.3687 150° Southeast 123 142 11,100  Level Aus ATC (RADAR)
08:01AM -26.6476 152.3833 145° Southeast 123 142 11,100  Level Aus ATC (RADAR)
08:02AM -26.6613 152.3949 143° Southeast 123 142 11,100  Level Aus ATC (RADAR)
08:02AM -26.6772 152.4073 145° Southeast 119 137 11,100  Level Aus ATC (RADAR)
08:03AM -26.6906 152.4180 145° Southeast 117 135 11,100  Level Aus ATC (RADAR)
08:04AM -26.7078 152.4322 144° Southeast 114 131 11,100  Level Aus ATC (RADAR)
08:04AM -26.7229 152.4440 145° Southeast 112 129 11,100  Level Aus ATC (RADAR)
08:05AM -26.7413 152.4560 150° Southeast 113 130 11,100  Level Aus ATC (RADAR)
08:05AM -26.7557 152.4633 156° South 113 130 11,100  Level Aus ATC (RADAR)
08:06AM -26.7718 152.4730 152° Southeast 113 130 11,100  Level Aus ATC (RADAR)
08:07AM -26.7939 152.4860 152° Southeast 118 136 11,100  Level Aus ATC (RADAR)
08:07AM -26.8061 152.4932 152° Southeast 119 137 11,100  Level Aus ATC (RADAR)
08:08AM -26.8209 152.5020 152° Southeast 119 137 11,100  Level Aus ATC (RADAR)
08:08AM -26.8402 152.5152 149° Southeast 122 140 11,100  Level Aus ATC (RADAR)
08:09AM -26.8515 152.5238 146° Southeast 119 137 11,100  Level Aus ATC (RADAR)
08:09AM -26.8676 152.5359 146° Southeast 119 137 11,100  Level Aus ATC (RADAR)
08:10AM -26.8857 152.5500 145° Southeast 118 136 11,100  Level Aus ATC (RADAR)
08:10AM -26.8990 152.5607 144° Southeast 116 133 11,100  Level Aus ATC (RADAR)
08:11AM -26.9148 152.5727 146° Southeast 117 135 11,100  Level Aus ATC (RADAR)
08:12AM -26.9312 152.5845 147° Southeast 119 137 11,100  Level Aus ATC (RADAR)
08:12AM -26.9477 152.5955 149° Southeast 118 136 11,100  Level Aus ATC (RADAR)
08:13AM -26.9628 152.6031 156° South 118 136 11,100 -180 Level Aus ATC (RADAR)
08:13AM -26.9836 152.6152 153° Southeast 126 145 10,900 -360 Descending Aus ATC (RADAR)
08:14AM -27.0022 152.6254 154° Southeast 126 145 10,700 -420 Descending Aus ATC (RADAR)
08:14AM -27.0186 152.6340 155° Southeast 129 148 10,500 -360 Descending Aus ATC (RADAR)
08:15AM -27.0399 152.6463 153° Southeast 127 146 10,300 -360 Descending Aus ATC (RADAR)
08:16AM -27.0581 152.6582 150° Southeast 129 148 10,100 -420 Descending Aus ATC (RADAR)
08:16AM -27.0785 152.6729 147° Southeast 130 150 9,800 -480 Descending Aus ATC (RADAR)
08:17AM -27.0938 152.6843 146° Southeast 131 151 9,600 -420 Descending Aus ATC (RADAR)
08:17AM -27.1093 152.6957 147° Southeast 131 151 9,400 -660 Descending Aus ATC (RADAR)
08:18AM -27.1301 152.7115 146° Southeast 136 157 8,900 -600 Descending Aus ATC (RADAR)
08:19AM -27.1484 152.7255 146° Southeast 135 155 8,700 -300 Descending Aus ATC (RADAR)
08:19AM -27.1638 152.7369 147° Southeast 132 152 8,600 -480 Descending Aus ATC (RADAR)
08:20AM -27.1846 152.7518 147° Southeast 132 152 8,200 -660 Descending Aus ATC (RADAR)
08:20AM -27.2035 152.7629 152° Southeast 130 150 7,800 -660 Descending Aus ATC (RADAR)
08:21AM -27.2247 152.7763 151° Southeast 129 148 7,400 -540 Descending Aus ATC (RADAR)
08:22AM -27.2462 152.7896 151° Southeast 131 151 7,100 -480 Descending Aus ATC (RADAR)
08:22AM -27.2592 152.7975 151° Southeast 128 147 6,900 -420 Descending Aus ATC (RADAR)
08:23AM -27.2774 152.8085 152° Southeast 125 144 6,700 -480 Descending Aus ATC (RADAR)
08:23AM -27.2951 152.8203 149° Southeast 125 144 6,400 -600 Descending Aus ATC (RADAR)
08:24AM -27.3126 152.8322 149° Southeast 124 143 6,000 -720 Descending Aus ATC (RADAR)
08:24AM -27.3292 152.8462 143° Southeast 127 146 5,600 -600 Descending Aus ATC (RADAR)
08:25AM -27.3456 152.8610 141° Southeast 128 147 5,300 -720 Descending Aus ATC (RADAR)
08:26AM -27.3653 152.8783 142° Southeast 133 153 4,700 -780 Descending Aus ATC (RADAR)
08:26AM -27.3810 152.8925 141° Southeast 141 162 4,400 -600 Descending Aus ATC (RADAR)
08:27AM -27.4083 152.9120 148° Southeast 137 158 3,900 -480 Descending Aus ATC (RADAR)
08:28AM -27.4295 152.9251 151° Southeast 129 148 3,700 -480 Descending Aus ATC (RADAR)
08:28AM -27.4455 152.9335 155° Southeast 126 145 3,400 -540 Descending Aus ATC (RADAR)
08:29AM -27.4664 152.9447 155° Southeast 124 143 3,100 -480 Descending Aus ATC (RADAR)
08:29AM -27.4820 152.9532 154° Southeast 124 143 2,900 -420 Descending Aus ATC (RADAR)
08:30AM -27.4993 152.9639 151° Southeast 120 138 2,700 -180 Descending Aus ATC (RADAR)
08:31AM -27.5180 152.9769 148° Southeast 117 135 2,700  Level Aus ATC (RADAR)
08:31AM -27.5339 152.9862 153° Southeast 110 127 2,700 -180 Level Aus ATC (RADAR)
08:32AM -27.5539 152.9958 157° South 102 117 2,500 -480 Descending Aus ATC (RADAR)
08:32AM -27.5665 152.9974 174° South 90 104 2,100 -840 Descending Aus ATC (RADAR)